CFG2016 EGKK-EHAM
Flight info
| Callsign | CFG2016 |
|---|---|
| Flight time | 0h 46m |
| Altitude | 29000 |
| Route | FRANE M604 GASBA M197 REDFA |
| Aircraft | A359/H-SDE2E3GHIJ3J4J5LM1ORWXY/LB1D1 |
Departure
| Time | 2026-05-04 13:38 |
|---|---|
| Airport | London Gatwick Airport (EGKK) |
Arrival
| Time | 2026-05-04 14:24 |
|---|---|
| Airport | Amsterdam Airport Schiphol (EHAM) |
| Time | Latitude | Longitude | Altitude | Speed | Heading |
|---|---|---|---|---|---|
| 2026-05-04 13:22 | 51.15261 | -0.18594 | 211 ft | 0 kts | 78° |
| 2026-05-04 13:29 | 51.15261 | -0.18598 | 219 ft | 3 kts | 78° |
| 2026-05-04 13:29 | 51.15257 | -0.18627 | 218 ft | 3 kts | 78° |
| 2026-05-04 13:29 | 51.15253 | -0.18655 | 213 ft | 3 kts | 78° |
| 2026-05-04 13:30 | 51.15250 | -0.18684 | 212 ft | 3 kts | 92° |
| 2026-05-04 13:30 | 51.15253 | -0.18713 | 213 ft | 3 kts | 112° |
| 2026-05-04 13:30 | 51.15262 | -0.18737 | 222 ft | 3 kts | 132° |
| 2026-05-04 13:30 | 51.15275 | -0.18756 | 221 ft | 3 kts | 152° |
| 2026-05-04 13:31 | 51.15279 | -0.18759 | 221 ft | 0 kts | 156° |
| 2026-05-04 13:31 | 51.15258 | -0.18744 | 216 ft | 8 kts | 156° |
| 2026-05-04 13:31 | 51.15174 | -0.18706 | 218 ft | 14 kts | 186° |
| 2026-05-04 13:32 | 51.15116 | -0.18814 | 218 ft | 16 kts | 253° |
| 2026-05-04 13:32 | 51.15079 | -0.19035 | 216 ft | 25 kts | 255° |
| 2026-05-04 13:32 | 51.15038 | -0.19348 | 217 ft | 32 kts | 260° |
| 2026-05-04 13:32 | 51.14988 | -0.19737 | 216 ft | 39 kts | 258° |
| 2026-05-04 13:33 | 51.14927 | -0.20195 | 218 ft | 44 kts | 258° |
| 2026-05-04 13:33 | 51.14874 | -0.20589 | 217 ft | 30 kts | 258° |
| 2026-05-04 13:33 | 51.14842 | -0.20828 | 219 ft | 9 kts | 254° |
| 2026-05-04 13:33 | 51.14823 | -0.20900 | 219 ft | 9 kts | 261° |
| 2026-05-04 13:34 | 51.14819 | -0.20952 | 212 ft | 0 kts | 263° |
| 2026-05-04 13:34 | 51.14815 | -0.20985 | 214 ft | 8 kts | 258° |
| 2026-05-04 13:34 | 51.14811 | -0.21015 | 215 ft | 0 kts | 258° |
| 2026-05-04 13:35 | 51.14808 | -0.21036 | 218 ft | 0 kts | 258° |
| 2026-05-04 13:36 | 51.14803 | -0.21062 | 215 ft | 7 kts | 255° |
| 2026-05-04 13:36 | 51.14782 | -0.21189 | 215 ft | 17 kts | 255° |
| 2026-05-04 13:36 | 51.14726 | -0.21364 | 221 ft | 16 kts | 204° |
| 2026-05-04 13:36 | 51.14636 | -0.21339 | 216 ft | 16 kts | 160° |
| 2026-05-04 13:37 | 51.14530 | -0.21226 | 219 ft | 19 kts | 118° |
| 2026-05-04 13:37 | 51.14527 | -0.21061 | 219 ft | 0 kts | 75° |
| 2026-05-04 13:37 | 51.14568 | -0.20798 | 220 ft | 64 kts | 77° |
| 2026-05-04 13:37 | 51.14723 | -0.19697 | 218 ft | 137 kts | 78° |
| 2026-05-04 13:38 | 51.14945 | -0.18007 | 683 ft | 162 kts | 78° |
| 2026-05-04 13:38 | 51.15202 | -0.16209 | 1519 ft | 172 kts | 76° |
| 2026-05-04 13:38 | 51.15507 | -0.14313 | 2344 ft | 182 kts | 75° |
| 2026-05-04 13:38 | 51.15808 | -0.12202 | 2813 ft | 208 kts | 78° |
| 2026-05-04 13:39 | 51.16105 | -0.09890 | 3385 ft | 226 kts | 78° |
| 2026-05-04 13:39 | 51.16448 | -0.07288 | 3813 ft | 252 kts | 77° |
| 2026-05-04 13:39 | 51.16879 | -0.04530 | 4143 ft | 260 kts | 72° |
| 2026-05-04 13:39 | 51.17442 | -0.01762 | 4468 ft | 263 kts | 71° |
| 2026-05-04 13:40 | 51.18031 | 0.01014 | 4819 ft | 265 kts | 71° |
| 2026-05-04 13:40 | 51.18626 | 0.03811 | 5097 ft | 268 kts | 71° |
| 2026-05-04 13:40 | 51.19225 | 0.06622 | 5098 ft | 268 kts | 71° |
| 2026-05-04 13:40 | 51.19828 | 0.09446 | 5233 ft | 270 kts | 71° |
| 2026-05-04 13:41 | 51.20438 | 0.12306 | 5885 ft | 275 kts | 71° |
| 2026-05-04 13:41 | 51.21053 | 0.15173 | 6919 ft | 279 kts | 71° |
| 2026-05-04 13:41 | 51.21695 | 0.18151 | 8003 ft | 282 kts | 71° |
| 2026-05-04 13:42 | 51.23152 | 0.24000 | 10082 ft | 291 kts | 59° |
| 2026-05-04 13:42 | 51.24479 | 0.26533 | 10756 ft | 311 kts | 42° |
| 2026-05-04 13:42 | 51.26260 | 0.28740 | 11223 ft | 335 kts | 33° |
| 2026-05-04 13:42 | 51.28316 | 0.30726 | 11674 ft | 357 kts | 28° |
| 2026-05-04 13:43 | 51.30572 | 0.32653 | 12118 ft | 377 kts | 27° |
| 2026-05-04 13:43 | 51.32941 | 0.34613 | 12841 ft | 386 kts | 27° |
| 2026-05-04 13:43 | 51.35301 | 0.36595 | 14096 ft | 380 kts | 27° |
| 2026-05-04 13:43 | 51.37629 | 0.38599 | 15041 ft | 382 kts | 28° |
| 2026-05-04 13:44 | 51.39971 | 0.40666 | 15890 ft | 386 kts | 29° |
| 2026-05-04 13:44 | 51.42326 | 0.42783 | 16723 ft | 390 kts | 30° |
| 2026-05-04 13:44 | 51.44660 | 0.44905 | 17538 ft | 395 kts | 30° |
| 2026-05-04 13:44 | 51.47069 | 0.47105 | 18379 ft | 400 kts | 30° |
| 2026-05-04 13:45 | 51.49505 | 0.49335 | 19134 ft | 405 kts | 30° |
| 2026-05-04 13:45 | 51.51965 | 0.51587 | 19894 ft | 410 kts | 30° |
| 2026-05-04 13:45 | 51.54465 | 0.53875 | 20641 ft | 415 kts | 30° |
| 2026-05-04 13:45 | 51.56988 | 0.56183 | 21405 ft | 420 kts | 29° |
| 2026-05-04 13:46 | 51.59542 | 0.58521 | 22162 ft | 425 kts | 29° |
| 2026-05-04 13:46 | 51.62126 | 0.60889 | 22911 ft | 430 kts | 29° |
| 2026-05-04 13:46 | 51.64743 | 0.63290 | 23662 ft | 435 kts | 29° |
| 2026-05-04 13:46 | 51.67347 | 0.65682 | 24263 ft | 439 kts | 29° |
| 2026-05-04 13:47 | 51.70013 | 0.68135 | 24858 ft | 445 kts | 29° |
| 2026-05-04 13:47 | 51.72718 | 0.70627 | 25445 ft | 450 kts | 29° |
| 2026-05-04 13:47 | 51.75443 | 0.73142 | 26045 ft | 454 kts | 29° |
| 2026-05-04 13:47 | 51.78210 | 0.75699 | 26639 ft | 459 kts | 29° |
| 2026-05-04 13:48 | 51.80977 | 0.78339 | 27225 ft | 464 kts | 33° |
| 2026-05-04 13:48 | 51.83543 | 0.81525 | 27806 ft | 469 kts | 42° |
| 2026-05-04 13:48 | 51.85782 | 0.85386 | 28409 ft | 473 kts | 52° |
| 2026-05-04 13:48 | 51.87568 | 0.89780 | 28867 ft | 476 kts | 63° |
| 2026-05-04 13:49 | 51.88875 | 0.94717 | 29016 ft | 481 kts | 74° |
| 2026-05-04 13:49 | 51.89604 | 1.00072 | 29025 ft | 494 kts | 85° |
| 2026-05-04 13:49 | 51.89772 | 1.11229 | 29018 ft | 497 kts | 88° |
| 2026-05-04 13:50 | 51.91067 | 1.22250 | 29021 ft | 500 kts | 77° |
| 2026-05-04 13:50 | 51.92885 | 1.33040 | 29019 ft | 500 kts | 76° |
| 2026-05-04 13:51 | 51.94835 | 1.43860 | 29017 ft | 500 kts | 75° |
| 2026-05-04 13:51 | 51.96780 | 1.54705 | 29011 ft | 500 kts | 76° |
| 2026-05-04 13:52 | 51.99637 | 1.70987 | 29016 ft | 501 kts | 76° |
| 2026-05-04 13:53 | 52.01320 | 1.81874 | 29019 ft | 500 kts | 78° |
| 2026-05-04 13:53 | 52.02990 | 1.92828 | 29018 ft | 500 kts | 78° |
| 2026-05-04 13:54 | 52.05504 | 2.09264 | 28733 ft | 493 kts | 78° |
| 2026-05-04 13:54 | 52.07142 | 2.20044 | 26729 ft | 497 kts | 78° |
| 2026-05-04 13:55 | 52.07965 | 2.25480 | 25991 ft | 494 kts | 77° |
| 2026-05-04 13:55 | 52.09585 | 2.36230 | 24604 ft | 485 kts | 77° |
| 2026-05-04 13:55 | 52.10381 | 2.41541 | 23919 ft | 481 kts | 77° |
| 2026-05-04 13:56 | 52.11205 | 2.46788 | 23177 ft | 477 kts | 73° |
| 2026-05-04 13:56 | 52.12512 | 2.51685 | 22639 ft | 469 kts | 60° |
| 2026-05-04 13:56 | 52.15809 | 2.60814 | 21856 ft | 466 kts | 59° |
| 2026-05-04 13:57 | 52.17433 | 2.65272 | 21445 ft | 463 kts | 59° |
| 2026-05-04 13:57 | 52.19068 | 2.69780 | 21030 ft | 460 kts | 59° |
| 2026-05-04 13:58 | 52.23868 | 2.83100 | 19815 ft | 449 kts | 59° |
| 2026-05-04 13:58 | 52.26996 | 2.91826 | 19017 ft | 441 kts | 59° |
| 2026-05-04 13:58 | 52.28537 | 2.96138 | 18612 ft | 438 kts | 59° |
| 2026-05-04 13:59 | 52.30063 | 3.00415 | 18230 ft | 434 kts | 60° |
| 2026-05-04 13:59 | 52.31556 | 3.04606 | 17807 ft | 431 kts | 60° |
| 2026-05-04 13:59 | 52.34549 | 3.13033 | 17042 ft | 426 kts | 60° |
| 2026-05-04 14:00 | 52.36032 | 3.17220 | 16647 ft | 424 kts | 60° |
| 2026-05-04 14:00 | 52.38973 | 3.25538 | 15899 ft | 420 kts | 59° |
| 2026-05-04 14:00 | 52.40428 | 3.29665 | 15532 ft | 418 kts | 59° |
| 2026-05-04 14:01 | 52.41877 | 3.33781 | 15154 ft | 416 kts | 59° |
| 2026-05-04 14:01 | 52.43315 | 3.37871 | 14785 ft | 414 kts | 59° |
| 2026-05-04 14:01 | 52.45473 | 3.46459 | 14069 ft | 410 kts | 76° |
| 2026-05-04 14:02 | 52.46124 | 3.51009 | 13680 ft | 408 kts | 77° |
| 2026-05-04 14:02 | 52.46755 | 3.55529 | 13286 ft | 406 kts | 77° |
| 2026-05-04 14:02 | 52.47389 | 3.60032 | 12925 ft | 404 kts | 77° |
| 2026-05-04 14:02 | 52.48021 | 3.64507 | 12568 ft | 401 kts | 77° |
| 2026-05-04 14:03 | 52.48645 | 3.68914 | 12338 ft | 389 kts | 77° |
| 2026-05-04 14:03 | 52.49236 | 3.73089 | 12069 ft | 374 kts | 77° |
| 2026-05-04 14:03 | 52.49812 | 3.77165 | 11813 ft | 360 kts | 77° |
| 2026-05-04 14:03 | 52.50366 | 3.81097 | 11552 ft | 347 kts | 77° |
| 2026-05-04 14:04 | 52.51413 | 3.88550 | 11084 ft | 324 kts | 77° |
| 2026-05-04 14:04 | 52.51910 | 3.92104 | 10872 ft | 313 kts | 77° |
| 2026-05-04 14:04 | 52.52300 | 3.95554 | 10660 ft | 303 kts | 86° |
| 2026-05-04 14:05 | 52.51349 | 4.01942 | 10312 ft | 280 kts | 114° |
| 2026-05-04 14:05 | 52.50621 | 4.04843 | 10164 ft | 270 kts | 114° |
| 2026-05-04 14:05 | 52.49928 | 4.07615 | 10016 ft | 261 kts | 114° |
| 2026-05-04 14:06 | 52.49509 | 4.10404 | 9711 ft | 249 kts | 88° |
| 2026-05-04 14:06 | 52.49912 | 4.13084 | 9430 ft | 236 kts | 72° |
| 2026-05-04 14:06 | 52.49919 | 4.15640 | 9139 ft | 220 kts | 112° |
| 2026-05-04 14:06 | 52.49052 | 4.17561 | 8895 ft | 207 kts | 141° |
| 2026-05-04 14:07 | 52.48017 | 4.19219 | 8622 ft | 209 kts | 134° |
| 2026-05-04 14:07 | 52.47129 | 4.21109 | 8368 ft | 210 kts | 126° |
| 2026-05-04 14:07 | 52.46381 | 4.23165 | 8112 ft | 210 kts | 120° |
| 2026-05-04 14:07 | 52.45724 | 4.25303 | 7855 ft | 209 kts | 117° |
| 2026-05-04 14:08 | 52.45128 | 4.27442 | 7598 ft | 209 kts | 116° |
| 2026-05-04 14:08 | 52.44548 | 4.29635 | 7364 ft | 210 kts | 115° |
| 2026-05-04 14:08 | 52.43985 | 4.31832 | 7123 ft | 209 kts | 114° |
| 2026-05-04 14:08 | 52.43433 | 4.34024 | 6873 ft | 208 kts | 114° |
| 2026-05-04 14:09 | 52.42344 | 4.38401 | 6385 ft | 206 kts | 113° |
| 2026-05-04 14:09 | 52.41803 | 4.40575 | 6128 ft | 206 kts | 113° |
| 2026-05-04 14:10 | 52.40736 | 4.44870 | 5614 ft | 204 kts | 113° |
| 2026-05-04 14:10 | 52.40206 | 4.47005 | 5413 ft | 200 kts | 113° |
| 2026-05-04 14:10 | 52.39682 | 4.49111 | 5168 ft | 200 kts | 113° |
| 2026-05-04 14:10 | 52.39158 | 4.51219 | 4914 ft | 200 kts | 113° |
| 2026-05-04 14:11 | 52.38635 | 4.53324 | 4668 ft | 199 kts | 113° |
| 2026-05-04 14:11 | 52.37608 | 4.57443 | 4267 ft | 194 kts | 113° |
| 2026-05-04 14:11 | 52.37109 | 4.59442 | 4174 ft | 184 kts | 112° |
| 2026-05-04 14:12 | 52.36647 | 4.61290 | 4072 ft | 173 kts | 112° |
| 2026-05-04 14:12 | 52.36204 | 4.63061 | 3950 ft | 165 kts | 112° |
| 2026-05-04 14:12 | 52.34767 | 4.65740 | 3488 ft | 157 kts | 154° |
| 2026-05-04 14:13 | 52.33777 | 4.66474 | 3256 ft | 156 kts | 159° |
| 2026-05-04 14:13 | 52.32772 | 4.67133 | 3039 ft | 155 kts | 160° |
| 2026-05-04 14:13 | 52.31765 | 4.67774 | 2997 ft | 155 kts | 160° |
| 2026-05-04 14:13 | 52.30756 | 4.68411 | 3001 ft | 156 kts | 160° |
| 2026-05-04 14:14 | 52.29744 | 4.69049 | 3001 ft | 156 kts | 160° |
| 2026-05-04 14:14 | 52.27738 | 4.70305 | 3000 ft | 155 kts | 160° |
| 2026-05-04 14:14 | 52.26729 | 4.70932 | 2943 ft | 155 kts | 160° |
| 2026-05-04 14:15 | 52.24717 | 4.72182 | 2834 ft | 154 kts | 160° |
| 2026-05-04 14:15 | 52.22710 | 4.73432 | 2675 ft | 154 kts | 160° |
| 2026-05-04 14:16 | 52.20708 | 4.74680 | 2493 ft | 154 kts | 160° |
| 2026-05-04 14:16 | 52.19669 | 4.75323 | 2439 ft | 165 kts | 160° |
| 2026-05-04 14:17 | 52.17505 | 4.76666 | 2264 ft | 168 kts | 160° |
| 2026-05-04 14:17 | 52.16408 | 4.77346 | 2139 ft | 169 kts | 159° |
| 2026-05-04 14:17 | 52.14210 | 4.78709 | 2000 ft | 170 kts | 159° |
| 2026-05-04 14:18 | 52.13083 | 4.79280 | 1983 ft | 171 kts | 172° |
| 2026-05-04 14:18 | 52.11593 | 4.77045 | 1997 ft | 163 kts | 276° |
| 2026-05-04 14:19 | 52.13258 | 4.75429 | 2009 ft | 161 kts | 17° |
| 2026-05-04 14:19 | 52.14331 | 4.75954 | 2001 ft | 161 kts | 14° |
| 2026-05-04 14:19 | 52.15428 | 4.76321 | 1999 ft | 161 kts | 7° |
| 2026-05-04 14:19 | 52.16521 | 4.76511 | 1982 ft | 149 kts | 3° |
| 2026-05-04 14:20 | 52.17491 | 4.76629 | 1978 ft | 133 kts | 3° |
| 2026-05-04 14:20 | 52.18399 | 4.76714 | 1995 ft | 130 kts | 2° |
| 2026-05-04 14:20 | 52.19309 | 4.76798 | 1962 ft | 132 kts | 2° |
| 2026-05-04 14:21 | 52.21136 | 4.76982 | 1613 ft | 131 kts | 2° |
| 2026-05-04 14:21 | 52.22027 | 4.77065 | 1443 ft | 129 kts | 2° |
| 2026-05-04 14:21 | 52.22921 | 4.77150 | 1265 ft | 128 kts | 2° |
| 2026-05-04 14:21 | 52.23808 | 4.77233 | 1087 ft | 127 kts | 2° |
| 2026-05-04 14:22 | 52.24689 | 4.77317 | 908 ft | 126 kts | 1° |
| 2026-05-04 14:22 | 52.25560 | 4.77397 | 736 ft | 124 kts | 2° |
| 2026-05-04 14:22 | 52.26430 | 4.77479 | 574 ft | 125 kts | 2° |
| 2026-05-04 14:22 | 52.27295 | 4.77561 | 390 ft | 125 kts | 2° |
| 2026-05-04 14:23 | 52.29041 | 4.77726 | 30 ft | 126 kts | 3° |
| 2026-05-04 14:23 | 52.29798 | 4.77797 | 2 ft | 108 kts | 3° |
| 2026-05-04 14:24 | 52.30174 | 4.77829 | 4 ft | 65 kts | 3° |
| 2026-05-04 14:24 | 52.30351 | 4.77834 | 6 ft | 15 kts | 355° |
| 2026-05-04 14:24 | 52.30448 | 4.77795 | 6 ft | 14 kts | 338° |
| 2026-05-04 14:24 | 52.30515 | 4.77737 | 5 ft | 0 kts | 331° |
| 2026-05-04 14:25 | 52.30517 | 4.77735 | 5 ft | 1 kts | 331° |
| 2026-05-04 14:25 | 52.30586 | 4.77673 | 4 ft | 10 kts | 331° |
| 2026-05-04 14:25 | 52.30645 | 4.77618 | 4 ft | 8 kts | 328° |
| 2026-05-04 14:26 | 52.30699 | 4.77573 | 4 ft | 9 kts | 335° |